createdAt,value
2018-02-15T00:00:39.242Z,0.00
2018-02-15T00:01:39.228Z,0.00
2018-02-15T00:02:39.193Z,0.00
2018-02-15T00:03:39.184Z,0.00
2018-02-15T00:04:39.151Z,0.00
2018-02-15T00:05:39.168Z,0.00
2018-02-15T00:06:39.120Z,0.00
2018-02-15T00:07:39.107Z,0.00
2018-02-15T00:08:39.091Z,0.00
2018-02-15T00:09:39.045Z,0.00
2018-02-15T00:10:39.046Z,0.00
2018-02-15T00:11:39.017Z,0.00
2018-02-15T00:12:39.012Z,0.00
2018-02-15T00:13:38.984Z,0.00
2018-02-15T00:14:38.965Z,0.00
2018-02-15T00:15:38.921Z,0.00
2018-02-15T00:16:38.907Z,0.00
2018-02-15T00:17:38.870Z,0.00
2018-02-15T00:18:38.863Z,0.00
2018-02-15T00:19:38.831Z,0.00
2018-02-15T00:20:38.860Z,0.00
2018-02-15T00:21:38.802Z,0.00
2018-02-15T00:22:38.794Z,0.00
2018-02-15T00:23:38.762Z,0.00
2018-02-15T00:24:38.727Z,0.00
2018-02-15T00:25:38.749Z,0.00
2018-02-15T00:26:38.679Z,0.00
2018-02-15T00:27:38.683Z,0.00
2018-02-15T00:28:38.664Z,0.00
2018-02-15T00:29:38.638Z,0.00
2018-02-15T00:30:38.621Z,0.00
2018-02-15T00:31:38.596Z,0.00
2018-02-15T00:32:38.577Z,0.00
2018-02-15T00:33:38.561Z,0.00
2018-02-15T00:34:38.520Z,0.00
2018-02-15T00:35:38.504Z,0.00
2018-02-15T00:36:38.462Z,0.00
2018-02-15T00:37:38.471Z,0.00
2018-02-15T00:38:38.430Z,0.00
2018-02-15T00:39:38.443Z,0.00
2018-02-15T00:40:38.398Z,0.00
2018-02-15T00:41:38.408Z,0.00
2018-02-15T00:42:38.379Z,0.00
2018-02-15T00:43:38.309Z,0.00
2018-02-15T00:44:38.425Z,0.00
2018-02-15T00:45:38.280Z,0.00
2018-02-15T00:46:38.257Z,0.00
2018-02-15T00:47:38.226Z,0.00
2018-02-15T00:48:38.214Z,0.00
2018-02-15T00:49:38.188Z,0.00
2018-02-15T00:50:38.172Z,0.00
2018-02-15T00:51:38.133Z,0.00
2018-02-15T00:52:38.137Z,0.00
2018-02-15T00:53:38.143Z,0.00
2018-02-15T00:54:38.069Z,0.00
2018-02-15T00:55:38.051Z,0.00
2018-02-15T00:56:38.031Z,0.00
2018-02-15T00:57:38.021Z,0.00
2018-02-15T00:58:38.008Z,0.00
2018-02-15T00:59:37.990Z,0.00
2018-02-15T01:00:37.962Z,0.00
2018-02-15T01:01:37.974Z,0.00
2018-02-15T01:02:37.913Z,0.00
2018-02-15T01:03:37.903Z,0.00
2018-02-15T01:04:37.895Z,0.00
2018-02-15T01:05:37.875Z,0.00
2018-02-15T01:06:37.840Z,0.00
2018-02-15T01:07:37.814Z,0.00
2018-02-15T01:08:37.768Z,0.00
2018-02-15T01:09:37.768Z,0.00
2018-02-15T01:10:37.740Z,0.00
2018-02-15T01:11:37.714Z,0.00
2018-02-15T01:12:37.685Z,0.00
2018-02-15T01:13:37.701Z,0.00
2018-02-15T01:14:37.679Z,0.00
2018-02-15T01:15:37.628Z,0.00
2018-02-15T01:16:37.646Z,0.00
2018-02-15T01:17:37.583Z,0.00
2018-02-15T01:18:37.605Z,0.00
2018-02-15T01:19:37.532Z,0.00
2018-02-15T01:20:37.513Z,0.00
2018-02-15T01:21:37.507Z,0.00
2018-02-15T01:22:37.520Z,0.00
2018-02-15T01:23:37.459Z,0.00
2018-02-15T01:24:37.504Z,0.00
2018-02-15T01:25:37.394Z,0.00
2018-02-15T01:26:37.407Z,0.00
2018-02-15T01:27:37.408Z,0.00
2018-02-15T01:28:37.342Z,0.00
2018-02-15T01:29:37.365Z,0.00
2018-02-15T01:30:37.301Z,0.00
2018-02-15T01:31:37.266Z,0.00
2018-02-15T01:32:37.270Z,0.00
2018-02-15T01:33:37.350Z,0.00
2018-02-15T01:34:37.221Z,0.00
2018-02-15T01:35:37.231Z,0.00
2018-02-15T01:36:37.178Z,0.00
2018-02-15T01:37:37.156Z,0.00
2018-02-15T01:38:37.162Z,0.00
2018-02-15T01:39:37.337Z,0.00
2018-02-15T01:40:37.165Z,0.00
2018-02-15T01:41:37.105Z,0.00
2018-02-15T01:42:37.100Z,0.00
2018-02-15T01:43:37.023Z,0.00
2018-02-15T01:44:37.060Z,0.00
2018-02-15T01:45:37.051Z,0.00
2018-02-15T01:46:37.002Z,0.00
2018-02-15T01:47:36.967Z,0.00
2018-02-15T01:48:36.973Z,0.00
2018-02-15T01:49:36.928Z,0.00
2018-02-15T01:50:36.893Z,0.00
2018-02-15T01:51:36.936Z,0.00
2018-02-15T01:52:36.884Z,0.00
2018-02-15T01:53:36.845Z,0.00
2018-02-15T01:54:36.829Z,0.00
2018-02-15T01:55:36.803Z,0.00
2018-02-15T01:56:36.807Z,0.00
2018-02-15T01:57:36.791Z,0.00
2018-02-15T01:58:36.816Z,0.00
2018-02-15T01:59:36.711Z,0.00
2018-02-15T02:00:36.759Z,0.00
2018-02-15T02:01:36.653Z,0.00
2018-02-15T02:02:36.647Z,0.00
2018-02-15T02:03:36.625Z,0.00
2018-02-15T02:04:36.677Z,0.00
2018-02-15T02:05:36.608Z,0.00
2018-02-15T02:06:36.678Z,0.00
2018-02-15T02:07:36.593Z,0.00
2018-02-15T02:08:36.554Z,0.00
2018-02-15T02:09:36.591Z,0.00
2018-02-15T02:10:36.521Z,0.00
2018-02-15T02:11:36.451Z,0.00
2018-02-15T02:12:36.464Z,0.00
2018-02-15T02:13:36.470Z,0.00
2018-02-15T02:14:36.470Z,0.00
2018-02-15T02:15:36.382Z,0.00
2018-02-15T02:16:36.369Z,0.00
2018-02-15T02:17:36.363Z,0.00
2018-02-15T02:18:36.287Z,0.00
2018-02-15T02:19:36.353Z,0.00
2018-02-15T02:20:36.357Z,0.00
2018-02-15T02:21:36.325Z,0.00
2018-02-15T02:22:36.251Z,0.00
2018-02-15T02:23:36.194Z,0.00
2018-02-15T02:24:36.261Z,0.00
2018-02-15T02:25:36.309Z,0.00
2018-02-15T02:26:36.158Z,0.00
2018-02-15T02:27:36.078Z,0.00
2018-02-15T02:28:36.054Z,0.00
2018-02-15T02:29:36.062Z,0.00
2018-02-15T02:30:36.088Z,0.00
2018-02-15T02:31:36.261Z,0.00
2018-02-15T02:32:36.759Z,0.00
2018-02-15T02:33:36.403Z,0.00
2018-02-15T02:34:36.474Z,0.00
2018-02-15T02:35:35.946Z,0.00
2018-02-15T02:36:35.960Z,0.00
2018-02-15T02:37:36.091Z,0.00
2018-02-15T02:38:36.085Z,0.00
2018-02-15T02:39:35.899Z,0.00
2018-02-15T02:40:35.880Z,0.00
2018-02-15T02:41:35.845Z,0.00
2018-02-15T02:42:35.955Z,0.00
2018-02-15T02:43:35.806Z,0.00
2018-02-15T02:44:35.874Z,0.00
2018-02-15T02:45:35.936Z,0.00
2018-02-15T02:46:35.802Z,0.00
2018-02-15T02:47:35.705Z,0.00
2018-02-15T02:48:35.686Z,0.00
2018-02-15T02:49:35.683Z,0.00
2018-02-15T02:50:35.744Z,0.00
2018-02-15T02:51:35.622Z,0.00
2018-02-15T02:52:35.588Z,0.00
2018-02-15T02:53:35.635Z,0.00
2018-02-15T02:54:35.588Z,0.00
2018-02-15T02:55:35.524Z,0.00
2018-02-15T02:56:35.565Z,0.00
2018-02-15T02:57:35.476Z,0.00
2018-02-15T02:58:35.626Z,0.00
2018-02-15T02:59:35.492Z,0.00
2018-02-15T03:00:35.499Z,0.00
2018-02-15T03:01:35.463Z,0.00
2018-02-15T03:02:35.350Z,0.00
2018-02-15T03:03:35.376Z,0.00
2018-02-15T03:04:35.357Z,0.00
2018-02-15T03:05:35.463Z,0.00
2018-02-15T03:06:35.483Z,0.00
2018-02-15T03:07:35.543Z,0.00
2018-02-15T03:08:35.312Z,0.00
2018-02-15T03:09:35.283Z,0.00
2018-02-15T03:10:35.228Z,0.00
2018-02-15T03:11:35.366Z,0.00
2018-02-15T03:12:35.159Z,0.00
2018-02-15T03:13:35.178Z,0.00
2018-02-15T03:14:35.156Z,0.00
2018-02-15T03:15:35.150Z,0.00
2018-02-15T03:16:35.082Z,0.00
2018-02-15T03:17:35.049Z,0.00
2018-02-15T03:18:35.012Z,0.00
2018-02-15T03:19:35.085Z,0.00
2018-02-15T03:20:35.114Z,0.00
2018-02-15T03:21:34.995Z,0.00
2018-02-15T03:22:35.263Z,0.00
2018-02-15T03:23:34.930Z,0.00
2018-02-15T03:24:35.031Z,0.00
2018-02-15T03:25:34.934Z,0.00
2018-02-15T03:26:34.876Z,0.00
2018-02-15T03:27:34.915Z,0.00
2018-02-15T03:28:34.796Z,0.00
2018-02-15T03:29:34.828Z,0.00
2018-02-15T03:30:34.792Z,0.00
2018-02-15T03:31:34.793Z,0.00
2018-02-15T03:32:34.728Z,0.00
2018-02-15T03:33:35.260Z,0.00
2018-02-15T03:34:34.718Z,0.00
2018-02-15T03:35:34.670Z,0.00
2018-02-15T03:36:34.782Z,0.00
2018-02-15T03:37:34.606Z,0.00
2018-02-15T03:38:34.606Z,0.00
2018-02-15T03:39:34.596Z,0.00
2018-02-15T03:40:34.521Z,0.00
2018-02-15T03:41:34.561Z,0.00
2018-02-15T03:42:34.533Z,0.00
2018-02-15T03:43:34.552Z,0.00
2018-02-15T03:44:34.433Z,0.00
2018-02-15T03:45:34.510Z,0.00
2018-02-15T03:46:34.442Z,0.00
2018-02-15T03:47:34.508Z,0.00
2018-02-15T03:48:34.417Z,0.00
2018-02-15T03:49:34.439Z,0.00
2018-02-15T03:50:34.376Z,0.00
2018-02-15T03:51:34.434Z,0.00
2018-02-15T03:52:34.423Z,0.00
2018-02-15T03:53:34.331Z,0.00
2018-02-15T03:54:34.302Z,0.00
2018-02-15T03:55:34.312Z,0.00
2018-02-15T03:56:34.222Z,0.00
2018-02-15T03:57:34.312Z,0.00
2018-02-15T03:58:34.161Z,0.00
2018-02-15T03:59:34.212Z,0.00
2018-02-15T04:00:34.185Z,0.00
2018-02-15T04:01:34.158Z,0.00
2018-02-15T04:02:34.109Z,0.00
2018-02-15T04:03:34.093Z,0.00
2018-02-15T04:04:34.206Z,0.00
2018-02-15T04:05:34.254Z,0.00
2018-02-15T04:06:34.077Z,0.00
2018-02-15T04:07:34.135Z,0.00
2018-02-15T04:08:33.946Z,0.00
2018-02-15T04:09:34.036Z,0.00
2018-02-15T04:10:34.002Z,0.00
2018-02-15T04:11:34.019Z,0.00
2018-02-15T04:12:33.877Z,0.00
2018-02-15T04:13:33.873Z,0.00
2018-02-15T04:14:33.887Z,0.00
2018-02-15T04:15:33.826Z,0.00
2018-02-15T04:16:33.801Z,0.00
2018-02-15T04:17:33.826Z,0.00
2018-02-15T04:18:33.849Z,0.00
2018-02-15T04:19:33.884Z,0.00
2018-02-15T04:20:33.769Z,0.00
2018-02-15T04:21:33.801Z,0.00
2018-02-15T04:22:33.661Z,0.00
2018-02-15T04:23:33.778Z,0.00
2018-02-15T04:24:33.618Z,0.00
2018-02-15T04:25:33.737Z,0.00
2018-02-15T04:26:33.640Z,0.00
2018-02-15T04:27:33.574Z,0.00
2018-02-15T04:28:33.573Z,0.00
2018-02-15T04:29:33.529Z,0.00
2018-02-15T04:30:33.500Z,0.00
2018-02-15T04:31:33.531Z,0.00
2018-02-15T04:32:33.551Z,0.00
2018-02-15T04:33:33.727Z,0.00
2018-02-15T04:34:33.529Z,0.00
2018-02-15T04:35:33.520Z,0.00
2018-02-15T04:36:33.427Z,0.00
2018-02-15T04:37:33.395Z,0.00
2018-02-15T04:38:33.389Z,0.00
2018-02-15T04:39:34.235Z,0.00
2018-02-15T04:40:33.529Z,0.00
2018-02-15T04:41:33.438Z,0.00
2018-02-15T04:42:33.331Z,0.00
2018-02-15T04:43:33.409Z,0.00
2018-02-15T04:44:33.209Z,0.00
2018-02-15T04:45:33.289Z,0.00
2018-02-15T04:46:33.376Z,0.00
2018-02-15T04:47:33.334Z,0.00
2018-02-15T04:49:33.111Z,0.00
2018-02-15T04:50:33.057Z,0.00
2018-02-15T04:51:33.082Z,0.00
2018-02-15T04:52:33.091Z,0.00
2018-02-15T04:53:33.147Z,0.00
2018-02-15T04:54:33.028Z,0.00
2018-02-15T04:55:33.028Z,0.00
2018-02-15T04:56:33.099Z,0.00
2018-02-15T04:57:32.905Z,0.00
2018-02-15T04:58:32.930Z,0.00
2018-02-15T04:59:32.831Z,0.00
2018-02-15T05:00:32.844Z,0.00
2018-02-15T05:01:32.834Z,0.00
2018-02-15T05:02:32.822Z,0.00
2018-02-15T05:03:32.751Z,0.00
2018-02-15T05:04:32.752Z,0.00
2018-02-15T05:05:32.762Z,0.00
2018-02-15T05:06:32.765Z,0.00
2018-02-15T05:07:32.733Z,0.00
2018-02-15T05:08:32.663Z,0.00
2018-02-15T05:09:32.737Z,0.00
2018-02-15T05:10:32.622Z,0.00
2018-02-15T05:11:32.579Z,0.00
2018-02-15T05:12:32.579Z,0.00
2018-02-15T05:13:32.524Z,0.00
2018-02-15T05:14:32.544Z,0.00
2018-02-15T05:15:32.544Z,0.00
2018-02-15T05:16:32.490Z,0.00
2018-02-15T05:17:32.525Z,0.00
2018-02-15T05:18:32.422Z,0.00
2018-02-15T05:19:32.395Z,0.00
2018-02-15T05:20:32.373Z,0.00
2018-02-15T05:21:32.360Z,0.00
2018-02-15T05:22:32.334Z,0.00
2018-02-15T05:23:32.324Z,0.00
2018-02-15T05:24:32.293Z,0.00
2018-02-15T05:25:32.280Z,0.00
2018-02-15T05:26:32.267Z,0.00
2018-02-15T05:27:32.228Z,0.00
2018-02-15T05:28:32.209Z,0.00
2018-02-15T05:29:32.187Z,0.00
2018-02-15T05:30:32.193Z,0.00
2018-02-15T05:31:32.164Z,0.00
2018-02-15T05:32:32.120Z,0.00
2018-02-15T05:33:32.104Z,0.00
2018-02-15T05:34:32.082Z,0.00
2018-02-15T05:35:32.078Z,0.00
2018-02-15T05:36:32.040Z,0.00
2018-02-15T05:37:32.021Z,0.00
2018-02-15T05:38:31.998Z,0.00
2018-02-15T05:39:31.973Z,0.00
2018-02-15T05:40:31.966Z,0.00
2018-02-15T05:41:31.928Z,0.00
2018-02-15T05:42:31.915Z,0.00
2018-02-15T05:43:31.892Z,0.00
2018-02-15T05:44:31.883Z,0.00
2018-02-15T05:45:31.848Z,0.00
2018-02-15T05:46:31.818Z,0.00
2018-02-15T05:47:31.815Z,0.00
2018-02-15T05:48:31.770Z,0.00
2018-02-15T05:49:31.757Z,0.00
2018-02-15T05:50:31.738Z,0.00
2018-02-15T05:51:31.712Z,0.00
2018-02-15T05:52:31.708Z,0.00
2018-02-15T05:53:31.674Z,0.00
2018-02-15T05:54:31.681Z,0.00
2018-02-15T05:55:31.629Z,0.00
2018-02-15T05:56:31.610Z,0.00
2018-02-15T05:57:31.589Z,0.00
2018-02-15T05:58:31.610Z,0.00
2018-02-15T05:59:31.570Z,0.00
2018-02-15T06:00:31.553Z,0.00
2018-02-15T06:01:31.516Z,0.00
2018-02-15T06:02:31.487Z,0.00
2018-02-15T06:03:31.461Z,0.00
2018-02-15T06:04:31.500Z,0.00
2018-02-15T06:05:31.471Z,0.00
2018-02-15T06:06:31.439Z,0.00
2018-02-15T06:07:31.398Z,0.00
2018-02-15T06:08:31.366Z,0.00
2018-02-15T06:09:31.355Z,0.00
2018-02-15T06:10:31.311Z,0.00
2018-02-15T06:11:31.298Z,0.00
2018-02-15T06:12:31.269Z,0.00
2018-02-15T06:13:31.254Z,0.00
2018-02-15T06:14:31.224Z,0.00
2018-02-15T06:15:31.237Z,0.00
2018-02-15T06:16:31.196Z,0.00
2018-02-15T06:17:31.206Z,0.00
2018-02-15T06:18:31.161Z,0.00
2018-02-15T06:19:31.132Z,0.00
2018-02-15T06:20:31.113Z,0.00
2018-02-15T06:21:31.089Z,0.00
2018-02-15T06:22:31.062Z,0.00
2018-02-15T06:23:31.039Z,0.00
2018-02-15T06:24:31.021Z,0.00
2018-02-15T06:25:30.996Z,0.00
2018-02-15T06:26:30.985Z,0.00
2018-02-15T06:27:30.957Z,0.00
2018-02-15T06:28:30.938Z,0.00
2018-02-15T06:29:30.909Z,0.00
2018-02-15T06:30:30.897Z,0.00
2018-02-15T06:31:30.868Z,0.00
2018-02-15T06:32:30.853Z,0.00
2018-02-15T06:33:30.832Z,0.00
2018-02-15T06:34:30.804Z,0.00
2018-02-15T06:35:30.786Z,0.00
2018-02-15T06:36:30.772Z,0.00
2018-02-15T06:37:30.741Z,0.00
2018-02-15T06:38:30.727Z,0.00
2018-02-15T06:39:30.718Z,5.63
2018-02-15T06:40:30.696Z,5.63
2018-02-15T06:41:30.657Z,5.63
2018-02-15T06:42:30.648Z,5.63
2018-02-15T06:43:30.612Z,5.63
2018-02-15T06:44:30.598Z,5.63
2018-02-15T06:45:30.573Z,5.63
2018-02-15T06:46:30.557Z,5.63
2018-02-15T06:47:30.532Z,11.25
2018-02-15T06:48:30.518Z,11.25
2018-02-15T06:49:30.489Z,11.25
2018-02-15T06:50:30.474Z,11.25
2018-02-15T06:51:30.474Z,11.25
2018-02-15T06:52:30.422Z,16.88
2018-02-15T06:53:30.413Z,16.88
2018-02-15T06:54:30.385Z,16.88
2018-02-15T06:55:30.359Z,16.88
2018-02-15T06:56:30.340Z,16.88
2018-02-15T06:57:30.340Z,16.88
2018-02-15T06:58:30.295Z,22.50
2018-02-15T06:59:30.269Z,22.50
2018-02-15T07:00:30.265Z,22.50
2018-02-15T07:01:30.234Z,22.50
2018-02-15T07:02:30.222Z,22.50
2018-02-15T07:03:30.201Z,22.50
2018-02-15T07:04:30.170Z,28.13
2018-02-15T07:05:30.155Z,28.13
2018-02-15T07:06:30.138Z,28.13
2018-02-15T07:07:30.105Z,28.13
2018-02-15T07:08:30.087Z,33.75
2018-02-15T07:09:30.078Z,33.75
2018-02-15T07:10:30.042Z,33.75
2018-02-15T07:11:30.029Z,39.38
2018-02-15T07:12:30.007Z,39.38
2018-02-15T07:13:29.987Z,39.38
2018-02-15T07:14:29.960Z,45.00
2018-02-15T07:15:29.937Z,45.00
2018-02-15T07:16:29.922Z,45.00
2018-02-15T07:17:29.891Z,50.63
2018-02-15T07:18:29.868Z,50.63
2018-02-15T07:19:29.848Z,50.63
2018-02-15T07:20:29.832Z,56.25
2018-02-15T07:21:29.807Z,56.25
2018-02-15T07:22:29.790Z,61.88
2018-02-15T07:23:29.770Z,67.50
2018-02-15T07:24:29.737Z,67.50
2018-02-15T07:25:29.720Z,73.13
2018-02-15T07:26:29.701Z,73.13
2018-02-15T07:27:29.675Z,78.75
2018-02-15T07:28:29.662Z,78.75
2018-02-15T07:29:29.637Z,78.75
2018-02-15T07:30:29.621Z,78.75
2018-02-15T07:31:29.592Z,84.38
2018-02-15T07:32:29.576Z,84.38
2018-02-15T07:33:29.560Z,84.38
2018-02-15T07:34:29.534Z,84.38
2018-02-15T07:35:29.508Z,84.38
2018-02-15T07:36:29.492Z,84.38
2018-02-15T07:37:29.473Z,90.00
2018-02-15T07:38:29.471Z,90.00
2018-02-15T07:39:29.440Z,90.00
2018-02-15T07:40:29.406Z,90.00
2018-02-15T07:41:29.386Z,90.00
2018-02-15T07:42:29.380Z,90.00
2018-02-15T07:43:29.354Z,84.38
2018-02-15T07:44:29.319Z,84.38
2018-02-15T07:45:29.304Z,90.00
2018-02-15T07:46:29.284Z,90.00
2018-02-15T07:47:29.265Z,90.00
2018-02-15T07:48:29.239Z,95.63
2018-02-15T07:49:29.220Z,101.25
2018-02-15T07:50:29.196Z,101.25
2018-02-15T07:51:29.177Z,106.88
2018-02-15T07:52:29.158Z,106.88
2018-02-15T07:53:29.137Z,106.88
2018-02-15T07:54:29.122Z,112.50
2018-02-15T07:55:29.084Z,112.50
2018-02-15T07:56:29.084Z,118.13
2018-02-15T07:57:29.053Z,118.13
2018-02-15T07:58:29.036Z,118.13
2018-02-15T07:59:29.011Z,118.13
2018-02-15T08:00:28.979Z,118.13
2018-02-15T08:01:28.963Z,123.75
2018-02-15T08:02:28.950Z,123.75
2018-02-15T08:03:28.924Z,123.75
2018-02-15T08:04:28.905Z,129.38
2018-02-15T08:05:28.885Z,129.38
2018-02-15T08:06:28.867Z,135.00
2018-02-15T08:07:28.838Z,135.00
2018-02-15T08:08:28.822Z,135.00
2018-02-15T08:09:28.804Z,135.00
2018-02-15T08:10:28.784Z,135.00
2018-02-15T08:11:28.758Z,135.00
2018-02-15T08:12:28.741Z,135.00
2018-02-15T08:13:28.714Z,135.00
2018-02-15T08:14:28.701Z,135.00
2018-02-15T08:15:28.675Z,140.63
2018-02-15T08:16:28.656Z,140.63
2018-02-15T08:17:28.682Z,140.63
2018-02-15T08:18:28.626Z,140.63
2018-02-15T08:19:28.599Z,146.25
2018-02-15T08:20:28.574Z,146.25
2018-02-15T08:21:28.551Z,146.25
2018-02-15T08:22:28.536Z,151.88
2018-02-15T08:23:28.509Z,151.88
2018-02-15T08:24:28.494Z,151.88
2018-02-15T08:25:28.477Z,157.50
2018-02-15T08:26:28.450Z,157.50
2018-02-15T08:27:28.426Z,157.50
2018-02-15T08:28:28.408Z,157.50
2018-02-15T08:29:28.383Z,157.50
2018-02-15T08:30:28.376Z,163.13
2018-02-15T08:31:28.341Z,163.13
2018-02-15T08:32:28.328Z,163.13
2018-02-15T08:33:28.309Z,168.75
2018-02-15T08:34:28.284Z,163.13
2018-02-15T08:35:28.264Z,163.13
2018-02-15T08:36:28.246Z,163.13
2018-02-15T08:37:28.235Z,163.13
2018-02-15T08:38:28.207Z,163.13
2018-02-15T08:39:28.179Z,157.50
2018-02-15T08:40:28.160Z,157.50
2018-02-15T08:41:28.144Z,163.13
2018-02-15T08:42:28.115Z,163.13
2018-02-15T08:43:28.106Z,163.13
2018-02-15T08:44:28.093Z,168.75
2018-02-15T08:45:28.061Z,174.38
2018-02-15T08:46:28.033Z,180.00
2018-02-15T08:47:28.029Z,180.00
2018-02-15T08:48:27.995Z,185.63
2018-02-15T08:49:27.973Z,185.63
2018-02-15T08:50:27.955Z,185.63
2018-02-15T08:51:27.947Z,185.63
2018-02-15T08:52:27.915Z,185.63
2018-02-15T08:53:27.893Z,191.25
2018-02-15T08:54:27.897Z,191.25
2018-02-15T08:55:27.859Z,191.25
2018-02-15T08:56:27.845Z,191.25
2018-02-15T08:57:27.822Z,191.25
2018-02-15T08:58:27.826Z,191.25
2018-02-15T08:59:27.771Z,191.25
2018-02-15T09:00:27.749Z,196.88
2018-02-15T09:01:27.748Z,202.50
2018-02-15T09:02:27.707Z,213.75
2018-02-15T09:03:27.695Z,225.00
2018-02-15T09:04:27.679Z,236.25
2018-02-15T09:05:27.657Z,247.50
2018-02-15T09:06:27.630Z,247.50
2018-02-15T09:07:27.604Z,247.50
2018-02-15T09:08:27.581Z,241.88
2018-02-15T09:09:27.571Z,236.25
2018-02-15T09:10:27.542Z,230.63
2018-02-15T09:11:27.526Z,230.63
2018-02-15T09:12:27.504Z,241.88
2018-02-15T09:13:27.481Z,241.88
2018-02-15T09:14:27.462Z,247.50
2018-02-15T09:15:27.441Z,253.13
2018-02-15T09:16:27.421Z,258.75
2018-02-15T09:17:27.411Z,258.75
2018-02-15T09:18:27.382Z,258.75
2018-02-15T09:19:27.363Z,258.75
2018-02-15T09:20:27.366Z,258.75
2018-02-15T09:21:27.315Z,247.50
2018-02-15T09:22:27.289Z,241.88
2018-02-15T09:23:27.273Z,236.25
2018-02-15T09:24:27.275Z,230.63
2018-02-15T09:25:27.229Z,225.00
2018-02-15T09:26:27.228Z,219.38
2018-02-15T09:27:27.186Z,219.38
2018-02-15T09:28:27.164Z,230.63
2018-02-15T09:29:27.148Z,236.25
2018-02-15T09:30:27.135Z,247.50
2018-02-15T09:31:27.112Z,253.13
2018-02-15T09:32:27.107Z,258.75
2018-02-15T09:33:27.077Z,253.13
2018-02-15T09:34:27.042Z,247.50
2018-02-15T09:35:27.033Z,247.50
2018-02-15T09:36:27.007Z,247.50
2018-02-15T09:37:26.990Z,241.88
2018-02-15T09:38:26.955Z,241.88
2018-02-15T09:39:26.933Z,253.13
2018-02-15T09:40:26.930Z,253.13
2018-02-15T09:41:26.907Z,258.75
2018-02-15T09:42:26.872Z,264.38
2018-02-15T09:43:26.855Z,253.13
2018-02-15T09:44:26.834Z,247.50
2018-02-15T09:45:26.818Z,241.88
2018-02-15T09:46:26.788Z,247.50
2018-02-15T09:47:26.781Z,247.50
2018-02-15T09:48:26.749Z,247.50
2018-02-15T09:49:26.733Z,253.13
2018-02-15T09:50:26.707Z,258.75
2018-02-15T09:51:26.685Z,258.75
2018-02-15T09:52:26.700Z,258.75
2018-02-15T09:53:26.643Z,258.75
2018-02-15T09:54:26.659Z,258.75
2018-02-15T09:55:26.621Z,258.75
2018-02-15T09:56:26.573Z,264.38
2018-02-15T09:57:26.557Z,275.63
2018-02-15T09:58:26.548Z,275.63
2018-02-15T09:59:26.519Z,264.38
2018-02-15T10:00:26.493Z,264.38
2018-02-15T10:01:26.474Z,270.00
2018-02-15T10:02:26.455Z,270.00
2018-02-15T10:03:26.439Z,264.38
2018-02-15T10:04:26.429Z,258.75
2018-02-15T10:05:26.398Z,270.00
2018-02-15T10:06:26.365Z,281.25
2018-02-15T10:07:26.354Z,298.13
2018-02-15T10:08:26.324Z,298.13
2018-02-15T10:09:26.312Z,292.50
2018-02-15T10:10:26.324Z,298.13
2018-02-15T10:11:26.261Z,326.25
2018-02-15T10:12:26.238Z,348.75
2018-02-15T10:13:26.235Z,348.75
2018-02-15T10:14:26.197Z,348.75
2018-02-15T10:15:26.178Z,376.88
2018-02-15T10:16:26.155Z,388.13
2018-02-15T10:17:26.140Z,405.00
2018-02-15T10:18:26.114Z,416.25
2018-02-15T10:19:26.095Z,444.38
2018-02-15T10:20:26.071Z,461.25
2018-02-15T10:21:26.063Z,483.75
2018-02-15T10:22:26.027Z,506.25
2018-02-15T10:23:26.005Z,517.50
2018-02-15T10:24:26.001Z,523.13
2018-02-15T10:25:25.967Z,556.88
2018-02-15T10:26:25.948Z,573.75
2018-02-15T10:27:25.925Z,534.38
2018-02-15T10:28:25.903Z,517.50
2018-02-15T10:29:25.893Z,483.75
2018-02-15T10:30:25.871Z,433.13
2018-02-15T10:31:25.855Z,410.63
2018-02-15T10:32:25.827Z,399.38
2018-02-15T10:33:25.807Z,393.75
2018-02-15T10:34:25.783Z,382.50
2018-02-15T10:35:25.764Z,354.38
2018-02-15T10:36:25.739Z,354.38
2018-02-15T10:37:25.729Z,360.00
2018-02-15T10:38:25.700Z,365.63
2018-02-15T10:39:25.688Z,393.75
2018-02-15T10:40:25.662Z,388.13
2018-02-15T10:41:25.644Z,438.75
2018-02-15T10:42:25.624Z,466.88
2018-02-15T10:43:25.604Z,489.38
2018-02-15T10:44:25.587Z,517.50
2018-02-15T10:45:25.564Z,562.50
2018-02-15T10:46:25.548Z,568.13
2018-02-15T10:47:25.516Z,556.88
2018-02-15T10:48:25.496Z,540.00
2018-02-15T10:49:25.481Z,534.38
2018-02-15T10:50:25.468Z,545.63
2018-02-15T10:51:25.455Z,573.75
2018-02-15T10:52:25.420Z,579.38
2018-02-15T10:53:25.396Z,585.00
2018-02-15T10:54:25.390Z,607.50
2018-02-15T10:55:25.355Z,613.13
2018-02-15T10:56:25.363Z,646.88
2018-02-15T10:57:25.323Z,635.63
2018-02-15T10:58:25.298Z,641.25
2018-02-15T10:59:25.278Z,579.38
2018-02-15T11:00:25.266Z,545.63
2018-02-15T11:01:25.240Z,506.25
2018-02-15T11:02:25.221Z,523.13
2018-02-15T11:03:25.198Z,455.63
2018-02-15T11:04:25.178Z,416.25
2018-02-15T11:05:25.159Z,438.75
2018-02-15T11:06:25.150Z,388.13
2018-02-15T11:07:25.127Z,393.75
2018-02-15T11:08:25.104Z,461.25
2018-02-15T11:09:25.088Z,433.13
2018-02-15T11:10:25.069Z,388.13
2018-02-15T11:11:25.044Z,416.25
2018-02-15T11:12:25.034Z,433.13
2018-02-15T11:13:25.021Z,399.38
2018-02-15T11:14:24.992Z,382.50
2018-02-15T11:15:24.979Z,393.75
2018-02-15T11:16:24.944Z,427.50
2018-02-15T11:17:24.931Z,416.25
2018-02-15T11:18:24.902Z,388.13
2018-02-15T11:19:24.880Z,376.88
2018-02-15T11:20:24.864Z,393.75
2018-02-15T11:21:24.841Z,416.25
2018-02-15T11:22:24.829Z,416.25
2018-02-15T11:23:24.822Z,421.88
2018-02-15T11:24:24.790Z,410.63
2018-02-15T11:25:24.780Z,410.63
2018-02-15T11:26:24.768Z,461.25
2018-02-15T11:27:24.723Z,472.50
2018-02-15T11:28:24.707Z,461.25
2018-02-15T11:29:24.684Z,455.63
2018-02-15T11:30:24.665Z,461.25
2018-02-15T11:31:24.643Z,438.75
2018-02-15T11:32:24.628Z,433.13
2018-02-15T11:33:24.614Z,421.88
2018-02-15T11:34:24.603Z,399.38
2018-02-15T11:35:24.568Z,399.38
2018-02-15T11:36:24.560Z,416.25
2018-02-15T11:37:24.546Z,438.75
2018-02-15T11:38:24.507Z,416.25
2018-02-15T11:39:24.493Z,410.63
2018-02-15T11:40:24.463Z,360.00
2018-02-15T11:41:24.444Z,337.50
2018-02-15T11:42:24.425Z,354.38
2018-02-15T11:43:24.405Z,388.13
2018-02-15T11:44:24.391Z,450.00
2018-02-15T11:45:24.368Z,450.00
2018-02-15T11:46:24.346Z,450.00
2018-02-15T11:47:24.327Z,438.75
2018-02-15T11:48:24.308Z,466.88
2018-02-15T11:49:24.299Z,461.25
2018-02-15T11:50:24.280Z,461.25
2018-02-15T11:51:24.286Z,427.50
2018-02-15T11:52:24.225Z,427.50
2018-02-15T11:53:24.228Z,421.88
2018-02-15T11:54:24.184Z,427.50
2018-02-15T11:55:24.193Z,450.00
2018-02-15T11:56:24.165Z,478.13
2018-02-15T11:57:24.122Z,427.50
2018-02-15T11:58:24.100Z,399.38
2018-02-15T11:59:24.080Z,360.00
2018-02-15T12:00:24.062Z,360.00
2018-02-15T12:01:24.052Z,348.75
2018-02-15T12:02:24.020Z,286.88
2018-02-15T12:03:24.002Z,286.88
2018-02-15T12:04:23.992Z,270.00
2018-02-15T12:05:23.959Z,270.00
2018-02-15T12:06:23.951Z,258.75
2018-02-15T12:07:23.924Z,258.75
2018-02-15T12:08:23.909Z,258.75
2018-02-15T12:09:23.885Z,281.25
2018-02-15T12:10:23.876Z,275.63
2018-02-15T12:11:23.847Z,264.38
2018-02-15T12:12:23.822Z,281.25
2018-02-15T12:13:23.816Z,286.88
2018-02-15T12:14:23.788Z,241.88
2018-02-15T12:15:23.762Z,225.00
2018-02-15T12:16:23.742Z,213.75
2018-02-15T12:17:23.724Z,230.63
2018-02-15T12:18:23.701Z,208.13
2018-02-15T12:19:23.698Z,253.13
2018-02-15T12:20:23.656Z,281.25
2018-02-15T12:21:23.634Z,286.88
2018-02-15T12:22:23.624Z,275.63
2018-02-15T12:23:23.605Z,298.13
2018-02-15T12:24:23.586Z,303.75
2018-02-15T12:25:23.568Z,275.63
2018-02-15T12:26:23.548Z,298.13
2018-02-15T12:27:23.529Z,275.63
2018-02-15T12:28:23.503Z,275.63
2018-02-15T12:29:23.478Z,309.38
2018-02-15T12:30:23.481Z,315.00
2018-02-15T12:31:23.440Z,320.63
2018-02-15T12:32:23.425Z,354.38
2018-02-15T12:33:23.404Z,410.63
2018-02-15T12:34:23.377Z,433.13
2018-02-15T12:35:23.371Z,433.13
2018-02-15T12:36:23.352Z,433.13
2018-02-15T12:37:23.323Z,438.75
2018-02-15T12:38:23.301Z,438.75
2018-02-15T12:39:23.285Z,421.88
2018-02-15T12:40:23.256Z,410.63
2018-02-15T12:41:23.243Z,354.38
2018-02-15T12:42:23.224Z,433.13
2018-02-15T12:43:23.199Z,427.50
2018-02-15T12:44:23.179Z,405.00
2018-02-15T12:45:23.155Z,399.38
2018-02-15T12:46:23.135Z,416.25
2018-02-15T12:47:23.119Z,388.13
2018-02-15T12:48:23.103Z,326.25
2018-02-15T12:49:23.075Z,303.75
2018-02-15T12:50:23.064Z,303.75
2018-02-15T12:51:23.036Z,303.75
2018-02-15T12:52:23.021Z,303.75
2018-02-15T12:53:23.002Z,275.63
2018-02-15T12:54:22.997Z,275.63
2018-02-15T12:55:22.968Z,298.13
2018-02-15T12:56:22.943Z,286.88